sensor_id;sensor_type;location;lat;lon;timestamp;P1;durP1;ratioP1;P2;durP2;ratioP2
13797;SDS011;6970;51.340;3.240;2022-12-24T00:01:01;46.63;;;8.70;;
13797;SDS011;6970;51.340;3.240;2022-12-24T00:03:29;46.67;;;7.70;;
13797;SDS011;6970;51.340;3.240;2022-12-24T00:05:56;52.83;;;8.37;;
13797;SDS011;6970;51.340;3.240;2022-12-24T00:08:23;46.67;;;8.87;;
13797;SDS011;6970;51.340;3.240;2022-12-24T00:10:50;43.13;;;9.13;;
13797;SDS011;6970;51.340;3.240;2022-12-24T00:13:18;40.00;;;7.63;;
13797;SDS011;6970;51.340;3.240;2022-12-24T00:15:46;39.30;;;7.20;;
13797;SDS011;6970;51.340;3.240;2022-12-24T00:18:13;42.43;;;8.10;;
13797;SDS011;6970;51.340;3.240;2022-12-24T00:20:41;36.73;;;7.67;;
13797;SDS011;6970;51.340;3.240;2022-12-24T00:23:11;40.60;;;8.00;;
13797;SDS011;6970;51.340;3.240;2022-12-24T00:25:39;33.10;;;7.20;;
13797;SDS011;6970;51.340;3.240;2022-12-24T00:28:06;45.10;;;7.63;;
13797;SDS011;6970;51.340;3.240;2022-12-24T00:30:33;36.77;;;8.80;;
13797;SDS011;6970;51.340;3.240;2022-12-24T00:33:00;41.07;;;7.60;;
13797;SDS011;6970;51.340;3.240;2022-12-24T00:35:27;36.80;;;7.43;;
13797;SDS011;6970;51.340;3.240;2022-12-24T00:37:54;32.63;;;7.43;;
13797;SDS011;6970;51.340;3.240;2022-12-24T00:40:21;44.33;;;7.53;;
13797;SDS011;6970;51.340;3.240;2022-12-24T00:42:48;39.17;;;7.43;;
13797;SDS011;6970;51.340;3.240;2022-12-24T00:45:15;35.23;;;6.00;;
13797;SDS011;6970;51.340;3.240;2022-12-24T00:47:42;36.40;;;6.83;;
13797;SDS011;6970;51.340;3.240;2022-12-24T00:50:09;24.63;;;5.63;;
13797;SDS011;6970;51.340;3.240;2022-12-24T00:52:36;29.63;;;5.93;;
13797;SDS011;6970;51.340;3.240;2022-12-24T00:55:03;28.27;;;6.20;;
13797;SDS011;6970;51.340;3.240;2022-12-24T00:57:30;37.13;;;6.17;;
13797;SDS011;6970;51.340;3.240;2022-12-24T00:59:57;32.63;;;6.33;;
13797;SDS011;6970;51.340;3.240;2022-12-24T01:02:24;40.23;;;6.30;;
13797;SDS011;6970;51.340;3.240;2022-12-24T01:04:52;33.17;;;6.40;;
13797;SDS011;6970;51.340;3.240;2022-12-24T01:07:37;29.63;;;4.97;;
13797;SDS011;6970;51.340;3.240;2022-12-24T01:10:06;33.50;;;5.40;;
13797;SDS011;6970;51.340;3.240;2022-12-24T01:12:34;35.80;;;5.70;;
13797;SDS011;6970;51.340;3.240;2022-12-24T01:15:02;33.67;;;5.20;;
13797;SDS011;6970;51.340;3.240;2022-12-24T01:17:30;31.50;;;6.27;;
13797;SDS011;6970;51.340;3.240;2022-12-24T01:19:58;30.20;;;5.57;;
13797;SDS011;6970;51.340;3.240;2022-12-24T01:22:25;31.33;;;5.17;;
13797;SDS011;6970;51.340;3.240;2022-12-24T01:24:52;37.47;;;6.40;;
13797;SDS011;6970;51.340;3.240;2022-12-24T01:27:19;45.63;;;7.30;;
13797;SDS011;6970;51.340;3.240;2022-12-24T01:29:46;26.03;;;6.13;;
13797;SDS011;6970;51.340;3.240;2022-12-24T01:32:13;39.20;;;6.10;;
13797;SDS011;6970;51.340;3.240;2022-12-24T01:34:40;41.40;;;7.20;;
13797;SDS011;6970;51.340;3.240;2022-12-24T01:37:07;34.73;;;6.67;;
13797;SDS011;6970;51.340;3.240;2022-12-24T01:39:33;33.17;;;6.37;;
13797;SDS011;6970;51.340;3.240;2022-12-24T01:42:00;49.17;;;7.37;;
13797;SDS011;6970;51.340;3.240;2022-12-24T01:44:47;32.80;;;6.70;;
13797;SDS011;6970;51.340;3.240;2022-12-24T01:47:21;35.27;;;6.23;;
13797;SDS011;6970;51.340;3.240;2022-12-24T01:49:55;45.10;;;7.87;;
13797;SDS011;6970;51.340;3.240;2022-12-24T01:52:25;45.10;;;6.67;;
13797;SDS011;6970;51.340;3.240;2022-12-24T01:57:29;56.57;;;8.40;;
13797;SDS011;6970;51.340;3.240;2022-12-24T02:00:03;53.00;;;7.53;;
13797;SDS011;6970;51.340;3.240;2022-12-24T02:02:32;39.70;;;8.10;;
13797;SDS011;6970;51.340;3.240;2022-12-24T02:05:02;47.33;;;8.30;;
13797;SDS011;6970;51.340;3.240;2022-12-24T02:07:33;35.60;;;7.27;;
13797;SDS011;6970;51.340;3.240;2022-12-24T02:10:01;52.97;;;9.63;;
13797;SDS011;6970;51.340;3.240;2022-12-24T02:12:30;56.23;;;9.43;;
13797;SDS011;6970;51.340;3.240;2022-12-24T02:15:00;39.67;;;8.87;;
13797;SDS011;6970;51.340;3.240;2022-12-24T02:17:30;39.67;;;7.87;;
13797;SDS011;6970;51.340;3.240;2022-12-24T02:20:26;50.20;;;9.33;;
13797;SDS011;6970;51.340;3.240;2022-12-24T02:31:22;41.13;;;9.30;;
13797;SDS011;6970;51.340;3.240;2022-12-24T02:34:15;51.60;;;9.37;;
13797;SDS011;6970;51.340;3.240;2022-12-24T02:39:38;51.10;;;8.83;;
13797;SDS011;6970;51.340;3.240;2022-12-24T02:42:11;46.20;;;8.03;;
13797;SDS011;6970;51.340;3.240;2022-12-24T02:44:46;48.77;;;8.40;;
13797;SDS011;6970;51.340;3.240;2022-12-24T02:47:17;44.57;;;7.60;;
13797;SDS011;6970;51.340;3.240;2022-12-24T02:49:47;34.37;;;7.53;;
13797;SDS011;6970;51.340;3.240;2022-12-24T02:54:59;48.73;;;7.13;;
13797;SDS011;6970;51.340;3.240;2022-12-24T03:00:19;32.27;;;6.67;;
13797;SDS011;6970;51.340;3.240;2022-12-24T03:05:35;46.00;;;7.97;;
13797;SDS011;6970;51.340;3.240;2022-12-24T03:10:52;39.93;;;8.47;;
13797;SDS011;6970;51.340;3.240;2022-12-24T03:13:21;36.50;;;8.07;;
13797;SDS011;6970;51.340;3.240;2022-12-24T03:15:50;46.10;;;8.67;;
13797;SDS011;6970;51.340;3.240;2022-12-24T03:18:20;42.73;;;7.40;;
13797;SDS011;6970;51.340;3.240;2022-12-24T03:21:12;48.00;;;8.53;;
13797;SDS011;6970;51.340;3.240;2022-12-24T03:23:43;44.20;;;8.57;;
13797;SDS011;6970;51.340;3.240;2022-12-24T03:26:11;42.77;;;7.47;;
13797;SDS011;6970;51.340;3.240;2022-12-24T03:28:39;40.50;;;6.73;;
13797;SDS011;6970;51.340;3.240;2022-12-24T03:31:09;47.87;;;7.47;;
13797;SDS011;6970;51.340;3.240;2022-12-24T03:33:36;52.63;;;9.20;;
13797;SDS011;6970;51.340;3.240;2022-12-24T03:36:04;51.07;;;7.67;;
13797;SDS011;6970;51.340;3.240;2022-12-24T03:38:31;48.63;;;8.57;;
13797;SDS011;6970;51.340;3.240;2022-12-24T03:40:59;35.60;;;8.00;;
13797;SDS011;6970;51.340;3.240;2022-12-24T03:43:26;37.50;;;8.13;;
13797;SDS011;6970;51.340;3.240;2022-12-24T03:45:53;44.40;;;8.93;;
13797;SDS011;6970;51.340;3.240;2022-12-24T03:48:20;42.77;;;7.40;;
13797;SDS011;6970;51.340;3.240;2022-12-24T03:50:54;51.87;;;7.60;;
13797;SDS011;6970;51.340;3.240;2022-12-24T03:53:21;41.03;;;6.77;;
13797;SDS011;6970;51.340;3.240;2022-12-24T03:55:48;42.53;;;7.23;;
13797;SDS011;6970;51.340;3.240;2022-12-24T03:58:14;34.57;;;6.07;;
13797;SDS011;6970;51.340;3.240;2022-12-24T04:00:41;37.37;;;7.50;;
13797;SDS011;6970;51.340;3.240;2022-12-24T04:03:08;42.13;;;7.10;;
13797;SDS011;6970;51.340;3.240;2022-12-24T04:05:35;38.90;;;6.83;;
13797;SDS011;6970;51.340;3.240;2022-12-24T04:08:02;44.03;;;7.57;;
13797;SDS011;6970;51.340;3.240;2022-12-24T04:10:29;37.00;;;6.13;;
13797;SDS011;6970;51.340;3.240;2022-12-24T04:12:56;37.17;;;7.23;;
13797;SDS011;6970;51.340;3.240;2022-12-24T04:15:23;33.63;;;7.63;;
13797;SDS011;6970;51.340;3.240;2022-12-24T04:17:50;41.40;;;7.70;;
13797;SDS011;6970;51.340;3.240;2022-12-24T04:20:17;36.83;;;6.60;;
13797;SDS011;6970;51.340;3.240;2022-12-24T04:22:44;32.57;;;7.83;;
13797;SDS011;6970;51.340;3.240;2022-12-24T04:25:11;39.20;;;7.23;;
13797;SDS011;6970;51.340;3.240;2022-12-24T04:27:38;43.30;;;7.27;;
13797;SDS011;6970;51.340;3.240;2022-12-24T04:30:05;41.10;;;6.90;;
13797;SDS011;6970;51.340;3.240;2022-12-24T04:32:33;37.27;;;6.43;;
13797;SDS011;6970;51.340;3.240;2022-12-24T04:35:00;38.90;;;8.23;;
13797;SDS011;6970;51.340;3.240;2022-12-24T04:37:27;39.73;;;6.50;;
13797;SDS011;6970;51.340;3.240;2022-12-24T04:39:54;48.27;;;7.60;;
13797;SDS011;6970;51.340;3.240;2022-12-24T04:42:21;48.87;;;7.90;;
13797;SDS011;6970;51.340;3.240;2022-12-24T04:44:48;41.43;;;7.90;;
13797;SDS011;6970;51.340;3.240;2022-12-24T04:47:16;47.47;;;8.50;;
13797;SDS011;6970;51.340;3.240;2022-12-24T04:49:42;46.33;;;8.97;;
13797;SDS011;6970;51.340;3.240;2022-12-24T04:52:09;50.70;;;8.13;;
13797;SDS011;6970;51.340;3.240;2022-12-24T04:54:36;40.13;;;8.03;;
13797;SDS011;6970;51.340;3.240;2022-12-24T04:57:03;53.77;;;8.23;;
13797;SDS011;6970;51.340;3.240;2022-12-24T04:59:30;44.70;;;8.13;;
13797;SDS011;6970;51.340;3.240;2022-12-24T05:01:57;39.30;;;6.93;;
13797;SDS011;6970;51.340;3.240;2022-12-24T05:04:24;39.37;;;6.30;;
13797;SDS011;6970;51.340;3.240;2022-12-24T05:06:51;46.37;;;7.83;;
13797;SDS011;6970;51.340;3.240;2022-12-24T05:09:18;42.53;;;8.50;;
13797;SDS011;6970;51.340;3.240;2022-12-24T05:11:45;46.07;;;7.67;;
13797;SDS011;6970;51.340;3.240;2022-12-24T05:14:12;35.97;;;6.60;;
13797;SDS011;6970;51.340;3.240;2022-12-24T05:16:39;43.27;;;8.30;;
13797;SDS011;6970;51.340;3.240;2022-12-24T05:19:06;38.90;;;6.80;;
13797;SDS011;6970;51.340;3.240;2022-12-24T05:21:33;29.07;;;5.90;;
13797;SDS011;6970;51.340;3.240;2022-12-24T05:24:00;34.60;;;8.07;;
13797;SDS011;6970;51.340;3.240;2022-12-24T05:26:50;43.93;;;7.20;;
13797;SDS011;6970;51.340;3.240;2022-12-24T05:29:19;40.63;;;6.53;;
13797;SDS011;6970;51.340;3.240;2022-12-24T05:31:46;34.67;;;6.00;;
13797;SDS011;6970;51.340;3.240;2022-12-24T05:34:14;48.63;;;7.17;;
13797;SDS011;6970;51.340;3.240;2022-12-24T05:36:42;42.03;;;6.17;;
13797;SDS011;6970;51.340;3.240;2022-12-24T05:39:16;37.00;;;7.20;;
13797;SDS011;6970;51.340;3.240;2022-12-24T05:41:43;34.60;;;7.17;;
13797;SDS011;6970;51.340;3.240;2022-12-24T05:44:11;34.27;;;5.13;;
13797;SDS011;6970;51.340;3.240;2022-12-24T05:46:38;39.37;;;7.33;;
13797;SDS011;6970;51.340;3.240;2022-12-24T05:49:05;37.57;;;5.70;;
13797;SDS011;6970;51.340;3.240;2022-12-24T05:51:32;26.83;;;5.93;;
13797;SDS011;6970;51.340;3.240;2022-12-24T05:54:00;36.97;;;6.53;;
13797;SDS011;6970;51.340;3.240;2022-12-24T05:56:27;31.37;;;6.03;;
13797;SDS011;6970;51.340;3.240;2022-12-24T05:58:53;22.83;;;5.43;;
13797;SDS011;6970;51.340;3.240;2022-12-24T06:01:21;33.30;;;7.03;;
13797;SDS011;6970;51.340;3.240;2022-12-24T06:03:49;38.93;;;5.60;;
13797;SDS011;6970;51.340;3.240;2022-12-24T06:06:19;33.53;;;7.20;;
13797;SDS011;6970;51.340;3.240;2022-12-24T06:08:48;24.83;;;5.40;;
13797;SDS011;6970;51.340;3.240;2022-12-24T06:11:17;43.17;;;6.50;;
13797;SDS011;6970;51.340;3.240;2022-12-24T06:13:46;38.83;;;6.03;;
13797;SDS011;6970;51.340;3.240;2022-12-24T06:16:15;38.13;;;5.53;;
13797;SDS011;6970;51.340;3.240;2022-12-24T06:18:43;32.50;;;6.77;;
13797;SDS011;6970;51.340;3.240;2022-12-24T06:21:10;34.87;;;5.37;;
13797;SDS011;6970;51.340;3.240;2022-12-24T06:23:38;26.10;;;5.00;;
13797;SDS011;6970;51.340;3.240;2022-12-24T06:26:07;27.73;;;5.77;;
13797;SDS011;6970;51.340;3.240;2022-12-24T06:28:36;30.57;;;5.43;;
13797;SDS011;6970;51.340;3.240;2022-12-24T06:31:04;25.67;;;5.80;;
13797;SDS011;6970;51.340;3.240;2022-12-24T06:33:33;28.70;;;5.90;;
13797;SDS011;6970;51.340;3.240;2022-12-24T06:36:00;27.57;;;5.20;;
13797;SDS011;6970;51.340;3.240;2022-12-24T06:38:31;27.37;;;6.03;;
13797;SDS011;6970;51.340;3.240;2022-12-24T06:40:58;24.53;;;4.77;;
13797;SDS011;6970;51.340;3.240;2022-12-24T06:43:26;26.13;;;5.50;;
13797;SDS011;6970;51.340;3.240;2022-12-24T06:45:53;32.27;;;5.00;;
13797;SDS011;6970;51.340;3.240;2022-12-24T06:48:20;25.17;;;5.17;;
13797;SDS011;6970;51.340;3.240;2022-12-24T06:50:47;35.03;;;5.17;;
13797;SDS011;6970;51.340;3.240;2022-12-24T06:53:14;36.70;;;6.17;;
13797;SDS011;6970;51.340;3.240;2022-12-24T06:55:41;25.77;;;5.50;;
13797;SDS011;6970;51.340;3.240;2022-12-24T06:58:08;35.70;;;6.33;;
13797;SDS011;6970;51.340;3.240;2022-12-24T07:00:36;32.40;;;5.70;;
13797;SDS011;6970;51.340;3.240;2022-12-24T07:03:03;27.70;;;5.97;;
13797;SDS011;6970;51.340;3.240;2022-12-24T07:05:30;28.67;;;6.37;;
13797;SDS011;6970;51.340;3.240;2022-12-24T07:07:58;28.97;;;6.13;;
13797;SDS011;6970;51.340;3.240;2022-12-24T07:10:26;32.47;;;5.53;;
13797;SDS011;6970;51.340;3.240;2022-12-24T07:12:53;27.53;;;6.00;;
13797;SDS011;6970;51.340;3.240;2022-12-24T07:15:20;29.27;;;5.80;;
13797;SDS011;6970;51.340;3.240;2022-12-24T07:17:47;32.57;;;6.30;;
13797;SDS011;6970;51.340;3.240;2022-12-24T07:20:14;34.83;;;6.63;;
13797;SDS011;6970;51.340;3.240;2022-12-24T07:22:41;30.00;;;6.27;;
13797;SDS011;6970;51.340;3.240;2022-12-24T07:25:09;25.37;;;5.30;;
13797;SDS011;6970;51.340;3.240;2022-12-24T07:27:37;40.83;;;6.77;;
13797;SDS011;6970;51.340;3.240;2022-12-24T07:30:04;33.70;;;5.70;;
13797;SDS011;6970;51.340;3.240;2022-12-24T07:32:32;26.93;;;5.53;;
13797;SDS011;6970;51.340;3.240;2022-12-24T07:34:59;30.17;;;5.43;;
13797;SDS011;6970;51.340;3.240;2022-12-24T07:37:27;28.57;;;5.23;;
13797;SDS011;6970;51.340;3.240;2022-12-24T07:39:54;36.77;;;5.57;;
13797;SDS011;6970;51.340;3.240;2022-12-24T07:42:21;36.13;;;6.70;;
13797;SDS011;6970;51.340;3.240;2022-12-24T07:44:48;30.67;;;6.37;;
13797;SDS011;6970;51.340;3.240;2022-12-24T07:47:15;37.43;;;5.47;;
13797;SDS011;6970;51.340;3.240;2022-12-24T07:49:42;34.50;;;6.40;;
13797;SDS011;6970;51.340;3.240;2022-12-24T07:52:09;36.90;;;7.53;;
13797;SDS011;6970;51.340;3.240;2022-12-24T07:54:36;33.33;;;6.70;;
13797;SDS011;6970;51.340;3.240;2022-12-24T07:57:03;44.50;;;7.10;;
13797;SDS011;6970;51.340;3.240;2022-12-24T07:59:30;30.60;;;5.83;;
13797;SDS011;6970;51.340;3.240;2022-12-24T08:01:57;40.53;;;6.83;;
13797;SDS011;6970;51.340;3.240;2022-12-24T08:04:24;36.00;;;6.63;;
13797;SDS011;6970;51.340;3.240;2022-12-24T08:06:51;36.97;;;5.30;;
13797;SDS011;6970;51.340;3.240;2022-12-24T08:09:18;37.73;;;7.17;;
13797;SDS011;6970;51.340;3.240;2022-12-24T08:11:45;35.17;;;5.80;;
13797;SDS011;6970;51.340;3.240;2022-12-24T08:14:17;31.77;;;6.10;;
13797;SDS011;6970;51.340;3.240;2022-12-24T08:16:45;36.43;;;5.80;;
13797;SDS011;6970;51.340;3.240;2022-12-24T08:19:12;31.07;;;6.60;;
13797;SDS011;6970;51.340;3.240;2022-12-24T08:21:39;33.07;;;6.93;;
13797;SDS011;6970;51.340;3.240;2022-12-24T08:24:06;29.30;;;6.47;;
13797;SDS011;6970;51.340;3.240;2022-12-24T08:26:33;38.97;;;7.50;;
13797;SDS011;6970;51.340;3.240;2022-12-24T08:29:00;33.07;;;7.13;;
13797;SDS011;6970;51.340;3.240;2022-12-24T08:31:28;42.10;;;7.40;;
13797;SDS011;6970;51.340;3.240;2022-12-24T08:33:55;40.67;;;6.43;;
13797;SDS011;6970;51.340;3.240;2022-12-24T08:36:22;38.20;;;6.80;;
13797;SDS011;6970;51.340;3.240;2022-12-24T08:38:48;32.70;;;5.77;;
13797;SDS011;6970;51.340;3.240;2022-12-24T08:41:15;34.37;;;7.53;;
13797;SDS011;6970;51.340;3.240;2022-12-24T08:43:42;45.37;;;8.10;;
13797;SDS011;6970;51.340;3.240;2022-12-24T08:46:10;40.87;;;7.00;;
13797;SDS011;6970;51.340;3.240;2022-12-24T08:48:37;30.40;;;8.17;;
13797;SDS011;6970;51.340;3.240;2022-12-24T08:51:08;42.17;;;7.27;;
13797;SDS011;6970;51.340;3.240;2022-12-24T08:53:36;31.87;;;7.43;;
13797;SDS011;6970;51.340;3.240;2022-12-24T08:56:05;34.30;;;8.03;;
13797;SDS011;6970;51.340;3.240;2022-12-24T08:58:34;36.70;;;7.07;;
13797;SDS011;6970;51.340;3.240;2022-12-24T09:01:08;29.17;;;6.60;;
13797;SDS011;6970;51.340;3.240;2022-12-24T09:03:40;44.57;;;7.53;;
13797;SDS011;6970;51.340;3.240;2022-12-24T09:06:07;35.87;;;8.03;;
13797;SDS011;6970;51.340;3.240;2022-12-24T09:08:35;48.47;;;7.80;;
13797;SDS011;6970;51.340;3.240;2022-12-24T09:11:07;34.57;;;7.37;;
13797;SDS011;6970;51.340;3.240;2022-12-24T09:13:39;29.10;;;6.60;;
13797;SDS011;6970;51.340;3.240;2022-12-24T09:16:07;39.90;;;7.90;;
13797;SDS011;6970;51.340;3.240;2022-12-24T09:18:34;32.00;;;7.17;;
13797;SDS011;6970;51.340;3.240;2022-12-24T09:21:05;28.33;;;6.23;;
13797;SDS011;6970;51.340;3.240;2022-12-24T09:23:34;22.03;;;5.20;;
13797;SDS011;6970;51.340;3.240;2022-12-24T09:26:05;31.87;;;6.30;;
13797;SDS011;6970;51.340;3.240;2022-12-24T09:28:33;39.17;;;6.60;;
13797;SDS011;6970;51.340;3.240;2022-12-24T09:31:01;28.93;;;7.03;;
13797;SDS011;6970;51.340;3.240;2022-12-24T09:33:30;30.30;;;6.10;;
13797;SDS011;6970;51.340;3.240;2022-12-24T09:36:00;32.90;;;6.37;;
13797;SDS011;6970;51.340;3.240;2022-12-24T09:38:27;21.80;;;6.00;;
13797;SDS011;6970;51.340;3.240;2022-12-24T09:40:56;33.83;;;6.60;;
13797;SDS011;6970;51.340;3.240;2022-12-24T09:43:32;29.60;;;6.80;;
13797;SDS011;6970;51.340;3.240;2022-12-24T09:46:23;26.07;;;5.17;;
13797;SDS011;6970;51.340;3.240;2022-12-24T09:48:49;36.90;;;6.37;;
13797;SDS011;6970;51.340;3.240;2022-12-24T09:51:23;34.13;;;7.17;;
13797;SDS011;6970;51.340;3.240;2022-12-24T09:56:51;24.93;;;5.53;;
13797;SDS011;6970;51.340;3.240;2022-12-24T09:59:21;28.73;;;7.40;;
13797;SDS011;6970;51.340;3.240;2022-12-24T10:01:51;32.13;;;7.63;;
13797;SDS011;6970;51.340;3.240;2022-12-24T10:04:22;37.47;;;7.13;;
13797;SDS011;6970;51.340;3.240;2022-12-24T10:12:25;39.73;;;6.90;;
13797;SDS011;6970;51.340;3.240;2022-12-24T10:15:27;25.10;;;6.93;;
13797;SDS011;6970;51.340;3.240;2022-12-24T10:18:03;22.70;;;6.07;;
13797;SDS011;6970;51.340;3.240;2022-12-24T10:20:50;33.80;;;6.23;;
13797;SDS011;6970;51.340;3.240;2022-12-24T10:24:02;26.43;;;6.87;;
13797;SDS011;6970;51.340;3.240;2022-12-24T10:28:59;23.47;;;7.00;;
13797;SDS011;6970;51.340;3.240;2022-12-24T10:35:31;31.50;;;6.23;;
13797;SDS011;6970;51.340;3.240;2022-12-24T10:37:45;25.07;;;5.83;;
13797;SDS011;6970;51.340;3.240;2022-12-24T10:40:31;30.43;;;7.10;;
13797;SDS011;6970;51.340;3.240;2022-12-24T10:43:15;27.93;;;6.10;;
13797;SDS011;6970;51.340;3.240;2022-12-24T10:45:52;27.00;;;6.23;;
13797;SDS011;6970;51.340;3.240;2022-12-24T10:48:24;19.60;;;5.53;;
13797;SDS011;6970;51.340;3.240;2022-12-24T10:51:04;27.47;;;6.50;;
13797;SDS011;6970;51.340;3.240;2022-12-24T10:53:47;21.90;;;5.83;;
13797;SDS011;6970;51.340;3.240;2022-12-24T10:56:19;21.40;;;6.03;;
13797;SDS011;6970;51.340;3.240;2022-12-24T10:58:51;27.57;;;5.77;;
13797;SDS011;6970;51.340;3.240;2022-12-24T11:01:20;27.37;;;6.63;;
13797;SDS011;6970;51.340;3.240;2022-12-24T11:04:13;28.13;;;5.67;;
13797;SDS011;6970;51.340;3.240;2022-12-24T11:09:39;21.20;;;5.67;;
13797;SDS011;6970;51.340;3.240;2022-12-24T11:12:15;21.40;;;6.23;;
13797;SDS011;6970;51.340;3.240;2022-12-24T11:14:47;24.27;;;6.40;;
13797;SDS011;6970;51.340;3.240;2022-12-24T11:17:18;24.37;;;5.87;;
13797;SDS011;6970;51.340;3.240;2022-12-24T11:19:48;24.53;;;6.63;;
13797;SDS011;6970;51.340;3.240;2022-12-24T11:22:26;28.00;;;5.53;;
13797;SDS011;6970;51.340;3.240;2022-12-24T11:24:59;22.30;;;6.20;;
13797;SDS011;6970;51.340;3.240;2022-12-24T11:37:44;22.70;;;5.67;;
13797;SDS011;6970;51.340;3.240;2022-12-24T11:40:19;21.20;;;5.57;;
13797;SDS011;6970;51.340;3.240;2022-12-24T11:42:48;25.97;;;5.30;;
13797;SDS011;6970;51.340;3.240;2022-12-24T11:45:21;22.63;;;5.63;;
13797;SDS011;6970;51.340;3.240;2022-12-24T11:47:50;20.70;;;5.87;;
13797;SDS011;6970;51.340;3.240;2022-12-24T11:52:56;22.67;;;5.73;;
13797;SDS011;6970;51.340;3.240;2022-12-24T11:58:25;27.07;;;5.60;;
13797;SDS011;6970;51.340;3.240;2022-12-24T12:01:20;26.33;;;5.83;;
13797;SDS011;6970;51.340;3.240;2022-12-24T12:03:56;21.77;;;5.43;;
13797;SDS011;6970;51.340;3.240;2022-12-24T12:06:32;27.20;;;5.60;;
13797;SDS011;6970;51.340;3.240;2022-12-24T12:09:27;21.27;;;5.23;;
13797;SDS011;6970;51.340;3.240;2022-12-24T12:14:49;25.37;;;6.00;;
13797;SDS011;6970;51.340;3.240;2022-12-24T12:25:32;23.80;;;5.90;;
13797;SDS011;6970;51.340;3.240;2022-12-24T12:28:27;23.67;;;6.23;;
13797;SDS011;6970;51.340;3.240;2022-12-24T12:31:15;26.27;;;5.97;;
13797;SDS011;6970;51.340;3.240;2022-12-24T12:39:45;25.57;;;6.63;;
13797;SDS011;6970;51.340;3.240;2022-12-24T12:42:21;31.07;;;7.00;;
13797;SDS011;6970;51.340;3.240;2022-12-24T12:56:03;31.33;;;6.90;;
13797;SDS011;6970;51.340;3.240;2022-12-24T13:06:45;31.27;;;7.00;;
13797;SDS011;6970;51.340;3.240;2022-12-24T13:10:09;24.30;;;6.50;;
13797;SDS011;6970;51.340;3.240;2022-12-24T13:20:56;31.37;;;6.17;;
13797;SDS011;6970;51.340;3.240;2022-12-24T13:23:24;22.33;;;6.80;;
13797;SDS011;6970;51.340;3.240;2022-12-24T13:25:55;23.27;;;6.77;;
13797;SDS011;6970;51.340;3.240;2022-12-24T13:33:53;24.20;;;6.23;;
13797;SDS011;6970;51.340;3.240;2022-12-24T13:36:14;21.77;;;7.10;;
13797;SDS011;6970;51.340;3.240;2022-12-24T13:38:43;19.77;;;6.20;;
13797;SDS011;6970;51.340;3.240;2022-12-24T13:46:54;26.00;;;6.03;;
13797;SDS011;6970;51.340;3.240;2022-12-24T13:52:06;28.93;;;7.10;;
13797;SDS011;6970;51.340;3.240;2022-12-24T14:02:33;27.93;;;6.33;;
13797;SDS011;6970;51.340;3.240;2022-12-24T14:05:06;25.00;;;6.87;;
13797;SDS011;6970;51.340;3.240;2022-12-24T14:07:47;31.27;;;7.40;;
13797;SDS011;6970;51.340;3.240;2022-12-24T14:10:26;21.90;;;5.87;;
13797;SDS011;6970;51.340;3.240;2022-12-24T14:13:01;22.27;;;5.47;;
13797;SDS011;6970;51.340;3.240;2022-12-24T14:18:20;22.77;;;5.60;;
13797;SDS011;6970;51.340;3.240;2022-12-24T14:20:50;25.60;;;6.47;;
13797;SDS011;6970;51.340;3.240;2022-12-24T14:23:34;27.97;;;7.07;;
13797;SDS011;6970;51.340;3.240;2022-12-24T14:26:22;26.43;;;6.40;;
13797;SDS011;6970;51.340;3.240;2022-12-24T14:28:56;27.33;;;6.00;;
13797;SDS011;6970;51.340;3.240;2022-12-24T14:31:54;29.43;;;6.97;;
13797;SDS011;6970;51.340;3.240;2022-12-24T14:34:22;31.77;;;7.10;;
13797;SDS011;6970;51.340;3.240;2022-12-24T14:36:50;40.43;;;7.73;;
13797;SDS011;6970;51.340;3.240;2022-12-24T14:39:22;24.10;;;5.93;;
13797;SDS011;6970;51.340;3.240;2022-12-24T14:41:59;30.00;;;6.00;;
13797;SDS011;6970;51.340;3.240;2022-12-24T14:47:24;20.27;;;6.60;;
13797;SDS011;6970;51.340;3.240;2022-12-24T14:53:15;19.83;;;5.47;;
13797;SDS011;6970;51.340;3.240;2022-12-24T14:55:50;24.87;;;6.00;;
13797;SDS011;6970;51.340;3.240;2022-12-24T15:00:55;32.97;;;6.70;;
13797;SDS011;6970;51.340;3.240;2022-12-24T15:03:27;23.77;;;6.27;;
13797;SDS011;6970;51.340;3.240;2022-12-24T15:05:57;26.60;;;6.97;;
13797;SDS011;6970;51.340;3.240;2022-12-24T15:08:37;27.20;;;6.33;;
13797;SDS011;6970;51.340;3.240;2022-12-24T15:11:12;28.20;;;6.93;;
13797;SDS011;6970;51.340;3.240;2022-12-24T15:13:42;18.37;;;4.70;;
13797;SDS011;6970;51.340;3.240;2022-12-24T15:16:13;25.50;;;6.37;;
13797;SDS011;6970;51.340;3.240;2022-12-24T15:18:46;23.87;;;5.90;;
13797;SDS011;6970;51.340;3.240;2022-12-24T15:21:20;21.70;;;6.37;;
13797;SDS011;6970;51.340;3.240;2022-12-24T15:23:57;24.50;;;6.43;;
13797;SDS011;6970;51.340;3.240;2022-12-24T15:26:29;22.57;;;6.17;;
13797;SDS011;6970;51.340;3.240;2022-12-24T15:29:00;29.27;;;5.90;;
13797;SDS011;6970;51.340;3.240;2022-12-24T15:31:38;25.57;;;6.63;;
13797;SDS011;6970;51.340;3.240;2022-12-24T15:34:23;22.63;;;6.87;;
13797;SDS011;6970;51.340;3.240;2022-12-24T15:39:56;25.23;;;6.90;;
13797;SDS011;6970;51.340;3.240;2022-12-24T15:42:23;22.33;;;6.60;;
13797;SDS011;6970;51.340;3.240;2022-12-24T15:47:35;18.70;;;6.47;;
13797;SDS011;6970;51.340;3.240;2022-12-24T15:52:44;34.90;;;7.57;;
13797;SDS011;6970;51.340;3.240;2022-12-24T16:00:43;22.57;;;7.37;;
13797;SDS011;6970;51.340;3.240;2022-12-24T16:03:26;23.17;;;6.20;;
13797;SDS011;6970;51.340;3.240;2022-12-24T16:06:00;27.33;;;5.97;;
13797;SDS011;6970;51.340;3.240;2022-12-24T16:08:32;30.43;;;6.47;;
13797;SDS011;6970;51.340;3.240;2022-12-24T16:13:31;31.63;;;6.63;;
13797;SDS011;6970;51.340;3.240;2022-12-24T16:16:02;27.03;;;5.77;;
13797;SDS011;6970;51.340;3.240;2022-12-24T16:21:03;31.73;;;7.30;;
13797;SDS011;6970;51.340;3.240;2022-12-24T16:23:35;28.23;;;5.63;;
13797;SDS011;6970;51.340;3.240;2022-12-24T16:26:11;21.40;;;5.47;;
13797;SDS011;6970;51.340;3.240;2022-12-24T16:28:38;22.10;;;6.03;;
13797;SDS011;6970;51.340;3.240;2022-12-24T16:31:05;19.93;;;5.07;;
13797;SDS011;6970;51.340;3.240;2022-12-24T16:33:32;24.47;;;5.50;;
13797;SDS011;6970;51.340;3.240;2022-12-24T16:35:59;22.13;;;5.80;;
13797;SDS011;6970;51.340;3.240;2022-12-24T16:38:26;29.73;;;6.63;;
13797;SDS011;6970;51.340;3.240;2022-12-24T16:41:13;23.30;;;5.67;;
13797;SDS011;6970;51.340;3.240;2022-12-24T16:43:40;23.43;;;6.20;;
13797;SDS011;6970;51.340;3.240;2022-12-24T16:46:16;29.20;;;5.90;;
13797;SDS011;6970;51.340;3.240;2022-12-24T16:48:45;23.93;;;6.20;;
13797;SDS011;6970;51.340;3.240;2022-12-24T16:51:13;27.63;;;5.97;;
13797;SDS011;6970;51.340;3.240;2022-12-24T16:53:40;22.63;;;6.17;;
13797;SDS011;6970;51.340;3.240;2022-12-24T16:56:07;28.53;;;7.27;;
13797;SDS011;6970;51.340;3.240;2022-12-24T16:58:34;28.73;;;6.80;;
13797;SDS011;6970;51.340;3.240;2022-12-24T17:01:05;29.60;;;6.53;;
13797;SDS011;6970;51.340;3.240;2022-12-24T17:03:34;18.57;;;7.10;;
13797;SDS011;6970;51.340;3.240;2022-12-24T17:06:04;20.87;;;6.43;;
13797;SDS011;6970;51.340;3.240;2022-12-24T17:08:32;30.97;;;7.43;;
13797;SDS011;6970;51.340;3.240;2022-12-24T17:11:00;26.50;;;6.60;;
13797;SDS011;6970;51.340;3.240;2022-12-24T17:13:26;32.77;;;8.53;;
13797;SDS011;6970;51.340;3.240;2022-12-24T17:15:53;24.70;;;8.13;;
13797;SDS011;6970;51.340;3.240;2022-12-24T17:18:20;27.23;;;8.83;;
13797;SDS011;6970;51.340;3.240;2022-12-24T17:20:55;22.87;;;8.33;;
13797;SDS011;6970;51.340;3.240;2022-12-24T17:23:26;31.03;;;9.27;;
13797;SDS011;6970;51.340;3.240;2022-12-24T17:25:53;37.13;;;9.47;;
13797;SDS011;6970;51.340;3.240;2022-12-24T17:28:20;28.00;;;9.17;;
13797;SDS011;6970;51.340;3.240;2022-12-24T17:30:47;27.63;;;9.10;;
13797;SDS011;6970;51.340;3.240;2022-12-24T17:33:14;28.43;;;10.10;;
13797;SDS011;6970;51.340;3.240;2022-12-24T17:35:42;33.20;;;11.77;;
13797;SDS011;6970;51.340;3.240;2022-12-24T17:38:09;27.73;;;11.23;;
13797;SDS011;6970;51.340;3.240;2022-12-24T17:40:36;28.27;;;9.97;;
13797;SDS011;6970;51.340;3.240;2022-12-24T17:43:03;27.23;;;11.40;;